Terminal Aerodrome Forecast
Issued by NWS

Home | Current Version | Previous Version | Text Only | Print | Product List | Glossary Off
Versions: 1 2 3 4 5 6 7 8 9 10 11 12 13 14 15 16 17 18 19 20

000
FTUS42 KMHX 162000 AAA
TAFOAJ
TAF AMD
KOAJ 162036Z 1621/1718 04010G15KT P6SM SKC
     FM162200 04010KT P6SM SKC
     FM170800 02010KT P6SM BKN025
     FM171400 04015G20KT P6SM OVC035
      AMD LTD TO CLD VIS AND WIND=

USA.gov is the U.S. government's official web portal to all federal, state and local government web resources and services.